createdAt,value
2023-02-11T00:01:13.573Z,40.63
2023-02-11T00:03:40.282Z,38.83
2023-02-11T00:06:09.491Z,39.33
2023-02-11T00:08:36.417Z,39.77
2023-02-11T00:11:04.646Z,37.70
2023-02-11T00:13:31.600Z,38.70
2023-02-11T00:15:58.142Z,38.13
2023-02-11T00:18:24.914Z,37.50
2023-02-11T00:20:51.471Z,42.37
2023-02-11T00:23:18.136Z,39.10
2023-02-11T00:25:45.573Z,40.23
2023-02-11T00:28:12.837Z,38.17
2023-02-11T00:30:40.960Z,37.03
2023-02-11T00:33:08.280Z,38.73
2023-02-11T00:35:38.047Z,40.10
2023-02-11T00:38:04.720Z,37.67
2023-02-11T00:40:31.323Z,37.83
2023-02-11T00:42:57.887Z,38.67
2023-02-11T00:45:24.465Z,40.27
2023-02-11T00:47:51.085Z,38.67
2023-02-11T00:50:17.781Z,35.03
2023-02-11T00:52:44.432Z,38.60
2023-02-11T00:55:11.019Z,39.63
2023-02-11T00:57:37.626Z,37.07
2023-02-11T01:00:06.953Z,38.30
2023-02-11T01:02:33.896Z,38.43
2023-02-11T01:05:01.056Z,38.00
2023-02-11T01:07:28.709Z,37.80
2023-02-11T01:09:55.646Z,37.27
2023-02-11T01:12:23.258Z,37.73
2023-02-11T01:14:49.867Z,34.20
2023-02-11T01:17:19.343Z,37.57
2023-02-11T01:19:45.977Z,38.50
2023-02-11T01:22:12.668Z,38.60
2023-02-11T01:24:39.271Z,34.47
2023-02-11T01:27:07.928Z,36.40
2023-02-11T01:29:34.678Z,36.50
2023-02-11T01:32:01.447Z,38.23
2023-02-11T01:34:28.346Z,35.90
2023-02-11T01:36:59.037Z,34.40
2023-02-11T01:39:28.096Z,33.27
2023-02-11T01:41:55.108Z,37.40
2023-02-11T01:44:34.518Z,35.37
2023-02-11T01:47:01.744Z,36.43
2023-02-11T01:49:31.863Z,37.90
2023-02-11T01:52:19.698Z,35.10
2023-02-11T01:55:09.948Z,35.27
2023-02-11T01:57:40.252Z,34.27
2023-02-11T02:00:15.621Z,36.57
2023-02-11T02:03:22.608Z,36.63
2023-02-11T02:06:06.349Z,35.83
2023-02-11T02:08:50.359Z,35.63
2023-02-11T02:11:17.096Z,35.47
2023-02-11T02:13:44.860Z,35.40
2023-02-11T02:16:17.907Z,36.53
2023-02-11T02:19:03.149Z,36.50
2023-02-11T02:21:32.419Z,36.80
2023-02-11T02:24:27.312Z,35.17
2023-02-11T02:27:03.215Z,36.80
2023-02-11T02:29:47.892Z,33.70
2023-02-11T02:32:31.934Z,36.60
2023-02-11T02:35:10.725Z,38.60
2023-02-11T02:37:55.527Z,36.50
2023-02-11T02:40:32.381Z,38.33
2023-02-11T02:43:01.126Z,37.30
2023-02-11T02:45:27.755Z,35.83
2023-02-11T02:47:54.449Z,37.73
2023-02-11T02:50:30.143Z,38.57
2023-02-11T02:53:15.781Z,38.27
2023-02-11T02:56:17.537Z,38.37
2023-02-11T02:58:53.109Z,39.97
2023-02-11T03:01:49.308Z,36.97
2023-02-11T03:04:36.235Z,34.73
2023-02-11T03:07:18.077Z,39.10
2023-02-11T03:10:04.040Z,37.93
2023-02-11T03:12:33.303Z,36.80
2023-02-11T03:15:02.664Z,38.20
2023-02-11T03:17:31.691Z,39.70
2023-02-11T03:20:11.655Z,37.83
2023-02-11T03:22:55.734Z,38.73
2023-02-11T03:25:30.121Z,38.43
2023-02-11T03:28:05.717Z,38.10
2023-02-11T03:30:41.691Z,40.20
2023-02-11T03:33:22.541Z,39.90
2023-02-11T03:35:56.602Z,41.57
2023-02-11T03:38:29.625Z,40.37
2023-02-11T03:40:58.430Z,38.20
2023-02-11T03:43:38.807Z,39.90
2023-02-11T03:46:06.721Z,37.87
2023-02-11T03:48:39.466Z,42.27
2023-02-11T03:51:09.258Z,42.13
2023-02-11T03:53:37.644Z,38.30
2023-02-11T03:56:08.849Z,43.47
2023-02-11T03:58:35.434Z,39.80
2023-02-11T04:01:02.805Z,38.67
2023-02-11T04:03:29.564Z,42.33
2023-02-11T04:05:56.193Z,40.87
2023-02-11T04:08:22.741Z,41.13
2023-02-11T04:10:49.340Z,43.10
2023-02-11T04:13:15.920Z,42.43
2023-02-11T04:15:42.549Z,42.53
2023-02-11T04:18:09.097Z,42.87
2023-02-11T04:20:35.678Z,44.83
2023-02-11T04:23:02.292Z,45.50
2023-02-11T04:25:29.221Z,43.30
2023-02-11T04:27:55.939Z,43.57
2023-02-11T04:30:22.594Z,48.63
2023-02-11T04:32:49.166Z,45.63
2023-02-11T04:35:15.818Z,48.87
2023-02-11T04:37:42.412Z,45.97
2023-02-11T04:40:09.603Z,48.10
2023-02-11T04:42:36.161Z,48.87
2023-02-11T04:45:03.087Z,47.40
2023-02-11T04:47:29.769Z,50.70
2023-02-11T04:49:56.388Z,47.37
2023-02-11T04:52:22.957Z,47.50
2023-02-11T04:54:49.578Z,48.10
2023-02-11T04:57:16.291Z,45.87
2023-02-11T04:59:42.923Z,48.07
2023-02-11T05:02:09.502Z,45.70
2023-02-11T05:04:36.166Z,44.73
2023-02-11T05:07:02.778Z,44.43
2023-02-11T05:09:29.392Z,43.80
2023-02-11T05:11:56.204Z,43.80
2023-02-11T05:14:22.757Z,43.97
2023-02-11T05:16:49.364Z,47.20
2023-02-11T05:19:16.286Z,43.63
2023-02-11T05:21:56.705Z,46.10
2023-02-11T05:24:28.238Z,44.93
2023-02-11T05:26:54.840Z,48.10
2023-02-11T05:29:21.485Z,48.67
2023-02-11T05:31:48.114Z,44.47
2023-02-11T05:34:14.712Z,47.13
2023-02-11T05:36:41.604Z,45.87
2023-02-11T05:39:08.329Z,45.17
2023-02-11T05:41:34.935Z,43.37
2023-02-11T05:44:01.600Z,47.13
2023-02-11T05:46:28.222Z,42.57
2023-02-11T05:48:56.606Z,40.50
2023-02-11T05:51:25.266Z,45.03
2023-02-11T05:53:53.572Z,43.93
2023-02-11T05:56:20.217Z,42.80
2023-02-11T05:58:46.944Z,44.57
2023-02-11T06:01:13.565Z,45.47
2023-02-11T06:03:40.307Z,38.07
2023-02-11T06:06:13.241Z,40.93
2023-02-11T06:08:40.191Z,42.57
2023-02-11T06:11:06.984Z,44.07
2023-02-11T06:13:33.600Z,43.33
2023-02-11T06:16:01.925Z,42.87
2023-02-11T06:18:29.535Z,45.60
2023-02-11T06:20:56.689Z,44.53
2023-02-11T06:23:23.345Z,38.37
2023-02-11T06:25:50.786Z,41.40
2023-02-11T06:28:19.256Z,37.73
2023-02-11T06:30:45.920Z,41.90
2023-02-11T06:33:12.490Z,41.07
2023-02-11T06:35:39.657Z,40.23
2023-02-11T06:38:06.227Z,40.53
2023-02-11T06:40:32.808Z,42.97
2023-02-11T06:42:59.408Z,40.10
2023-02-11T06:45:26.040Z,38.53
2023-02-11T06:47:53.061Z,40.00
2023-02-11T06:50:19.737Z,44.63
2023-02-11T06:52:46.336Z,41.73
2023-02-11T06:55:12.906Z,39.70
2023-02-11T06:57:39.571Z,40.67
2023-02-11T07:00:06.752Z,39.53
2023-02-11T07:02:33.416Z,41.80
2023-02-11T07:05:00.022Z,42.13
2023-02-11T07:07:27.525Z,39.90
2023-02-11T07:09:54.269Z,40.73
2023-02-11T07:12:20.917Z,41.80
2023-02-11T07:14:47.484Z,42.47
2023-02-11T07:17:14.132Z,41.40
2023-02-11T07:19:40.808Z,39.80
2023-02-11T07:22:07.429Z,37.90
2023-02-11T07:24:34.008Z,38.67
2023-02-11T07:27:00.613Z,39.73
2023-02-11T07:29:27.215Z,35.40
2023-02-11T07:31:53.942Z,36.47
2023-02-11T07:34:20.649Z,42.13
2023-02-11T07:36:48.973Z,36.93
2023-02-11T07:39:15.636Z,39.03
2023-02-11T07:41:42.982Z,35.93
2023-02-11T07:44:10.108Z,33.30
2023-02-11T07:46:36.881Z,35.23
2023-02-11T07:49:03.685Z,37.53
2023-02-11T07:51:31.390Z,39.30
2023-02-11T07:53:59.515Z,33.83
2023-02-11T07:56:26.443Z,38.00
2023-02-11T07:58:53.342Z,34.70
2023-02-11T08:01:24.935Z,31.83
2023-02-11T08:03:52.539Z,32.73
2023-02-11T08:06:21.017Z,34.00
2023-02-11T08:08:48.327Z,33.30
2023-02-11T08:11:22.269Z,31.83
2023-02-11T08:13:49.433Z,35.17
2023-02-11T08:16:34.617Z,30.13
2023-02-11T08:19:03.937Z,33.10
2023-02-11T08:21:30.864Z,32.50
2023-02-11T08:23:57.559Z,33.23
2023-02-11T08:26:28.382Z,33.60
2023-02-11T08:28:56.888Z,36.90
2023-02-11T08:31:30.009Z,32.77
2023-02-11T08:33:58.257Z,34.30
2023-02-11T08:36:28.526Z,32.83
2023-02-11T08:39:08.579Z,35.83
2023-02-11T08:41:42.815Z,38.23
2023-02-11T08:44:09.397Z,34.03
2023-02-11T08:46:36.304Z,32.87
2023-02-11T08:49:02.911Z,36.60
2023-02-11T08:51:31.546Z,33.47
2023-02-11T08:53:58.977Z,31.60
2023-02-11T08:56:26.490Z,34.73
2023-02-11T08:58:53.304Z,32.63
2023-02-11T09:01:23.173Z,34.40
2023-02-11T09:03:50.191Z,38.80
2023-02-11T09:06:18.598Z,38.47
2023-02-11T09:08:49.395Z,39.33
2023-02-11T09:11:19.561Z,36.67
2023-02-11T09:13:47.035Z,37.13
2023-02-11T09:16:23.644Z,39.07
2023-02-11T09:18:50.978Z,34.77
2023-02-11T09:21:19.129Z,39.27
2023-02-11T09:23:47.862Z,44.07
2023-02-11T09:26:16.002Z,45.07
2023-02-11T09:28:43.296Z,34.43
2023-02-11T09:31:12.340Z,38.00
2023-02-11T09:33:42.181Z,39.20
2023-02-11T09:36:09.163Z,35.07
2023-02-11T09:38:35.762Z,34.73
2023-02-11T09:41:07.555Z,35.40
2023-02-11T09:43:46.543Z,36.60
2023-02-11T09:46:17.509Z,34.73
2023-02-11T09:48:47.261Z,35.10
2023-02-11T09:52:03.477Z,35.83
2023-02-11T09:54:54.634Z,33.40
2023-02-11T09:57:28.559Z,36.90
2023-02-11T09:59:56.976Z,33.57
2023-02-11T10:02:44.985Z,31.67
2023-02-11T10:05:33.675Z,30.60
2023-02-11T10:08:14.103Z,30.77
2023-02-11T10:11:02.413Z,28.00
2023-02-11T10:13:55.174Z,27.70
2023-02-11T10:16:27.838Z,28.53
2023-02-11T10:19:11.284Z,43.97
2023-02-11T10:21:58.790Z,27.93
2023-02-11T10:24:25.619Z,25.97
2023-02-11T10:26:52.558Z,29.63
2023-02-11T10:29:38.648Z,27.67
2023-02-11T10:32:16.268Z,27.07
2023-02-11T10:34:42.941Z,24.33
2023-02-11T10:37:13.579Z,25.03
2023-02-11T10:39:40.877Z,24.23
2023-02-11T10:42:12.475Z,23.67
2023-02-11T10:44:48.572Z,21.90
2023-02-11T10:47:22.345Z,20.57
2023-02-11T10:49:49.303Z,24.17
2023-02-11T10:52:25.006Z,24.40
2023-02-11T10:55:02.208Z,21.30
2023-02-11T10:57:36.350Z,23.60
2023-02-11T11:00:20.051Z,22.27
2023-02-11T11:02:54.492Z,22.70
2023-02-11T11:05:28.492Z,21.07
2023-02-11T11:07:58.295Z,23.57
2023-02-11T11:10:34.367Z,22.33
2023-02-11T11:13:01.108Z,23.20
2023-02-11T11:15:31.890Z,20.97
2023-02-11T11:18:23.537Z,23.23
2023-02-11T11:21:27.033Z,20.13
2023-02-11T11:23:59.465Z,20.50
2023-02-11T11:26:40.718Z,25.40
2023-02-11T11:29:16.375Z,31.50
2023-02-11T11:31:56.930Z,23.67
2023-02-11T11:34:32.683Z,25.47
2023-02-11T11:37:01.889Z,25.00
2023-02-11T11:39:33.959Z,26.77
2023-02-11T11:42:05.488Z,25.23
2023-02-11T11:44:37.228Z,23.20
2023-02-11T11:47:18.502Z,23.10
2023-02-11T11:49:50.909Z,25.07
2023-02-11T11:52:39.679Z,23.57
2023-02-11T11:55:20.095Z,23.07
2023-02-11T11:57:47.689Z,22.80
2023-02-11T12:00:40.722Z,24.07
2023-02-11T12:03:18.810Z,24.17
2023-02-11T12:05:55.615Z,21.77
2023-02-11T12:08:51.073Z,21.40
2023-02-11T12:11:34.724Z,24.93
2023-02-11T12:14:09.918Z,23.70
2023-02-11T12:16:45.426Z,23.20
2023-02-11T12:19:12.095Z,21.47
2023-02-11T12:21:38.628Z,26.00
2023-02-11T12:24:05.641Z,25.43
2023-02-11T12:26:41.012Z,24.27
2023-02-11T12:29:29.415Z,22.17
2023-02-11T12:32:14.478Z,22.17
2023-02-11T12:35:01.612Z,21.10
2023-02-11T12:37:37.029Z,20.20
2023-02-11T12:40:32.582Z,22.00
2023-02-11T12:43:17.271Z,22.47
2023-02-11T12:45:46.730Z,20.47
2023-02-11T12:48:35.890Z,25.73
2023-02-11T12:51:39.747Z,26.90
2023-02-11T12:54:43.466Z,20.63
2023-02-11T12:57:28.364Z,23.30
2023-02-11T13:00:24.869Z,20.23
2023-02-11T13:03:28.668Z,22.20
2023-02-11T13:06:00.941Z,20.47
2023-02-11T13:08:34.151Z,21.37
2023-02-11T13:11:05.939Z,22.87
2023-02-11T13:13:46.291Z,21.93
2023-02-11T13:16:36.551Z,22.27
2023-02-11T13:19:19.700Z,20.30
2023-02-11T13:21:55.990Z,22.37
2023-02-11T13:24:49.118Z,21.03
2023-02-11T13:27:58.677Z,20.87
2023-02-11T13:30:39.200Z,23.90
2023-02-11T13:33:16.433Z,18.40
2023-02-11T13:35:49.633Z,19.90
2023-02-11T13:38:31.200Z,23.27
2023-02-11T13:41:14.495Z,20.73
2023-02-11T13:43:41.692Z,21.47
2023-02-11T13:46:12.107Z,22.07
2023-02-11T13:48:52.685Z,20.60
2023-02-11T13:51:39.114Z,22.00
2023-02-11T13:54:18.711Z,21.93
2023-02-11T13:56:46.318Z,25.73
2023-02-11T13:59:24.906Z,22.47
2023-02-11T14:02:11.461Z,23.97
2023-02-11T14:05:22.763Z,21.00
2023-02-11T14:08:29.474Z,23.07
2023-02-11T14:11:12.959Z,21.60
2023-02-11T14:13:48.453Z,20.67
2023-02-11T14:16:31.535Z,21.60
2023-02-11T14:19:00.183Z,23.33
2023-02-11T14:21:29.712Z,21.93
2023-02-11T14:24:02.020Z,22.43
2023-02-11T14:26:34.711Z,23.77
2023-02-11T14:29:20.289Z,19.67
2023-02-11T14:31:59.479Z,22.13
2023-02-11T14:34:56.970Z,21.93
2023-02-11T14:38:00.883Z,22.20
2023-02-11T14:40:33.445Z,24.57
2023-02-11T14:43:13.510Z,23.13
2023-02-11T14:45:41.148Z,24.70
2023-02-11T14:48:18.002Z,25.13
2023-02-11T14:51:11.328Z,24.97
2023-02-11T14:53:44.018Z,20.97
2023-02-11T14:56:31.066Z,23.57
2023-02-11T14:58:58.269Z,24.03
2023-02-11T15:01:37.956Z,27.43
2023-02-11T15:04:21.593Z,22.30
2023-02-11T15:06:52.122Z,23.30
2023-02-11T15:09:25.515Z,24.07
2023-02-11T15:11:53.215Z,27.13
2023-02-11T15:14:32.686Z,23.03
2023-02-11T15:17:08.794Z,23.07
2023-02-11T15:19:39.666Z,23.50
2023-02-11T15:22:18.632Z,29.73
2023-02-11T15:24:45.317Z,27.30
2023-02-11T15:27:18.513Z,24.33
2023-02-11T15:29:51.220Z,25.93
2023-02-11T15:32:25.736Z,25.50
2023-02-11T15:34:54.199Z,23.60
2023-02-11T15:37:31.552Z,25.37
2023-02-11T15:40:11.378Z,26.33
2023-02-11T15:42:52.092Z,26.37
2023-02-11T15:45:28.679Z,23.53
2023-02-11T15:48:12.805Z,24.67
2023-02-11T15:50:41.322Z,23.73
2023-02-11T15:53:25.969Z,23.87
2023-02-11T15:55:58.052Z,25.50
2023-02-11T15:58:24.756Z,22.33
2023-02-11T16:00:59.602Z,24.03
2023-02-11T16:03:32.420Z,26.77
2023-02-11T16:06:34.711Z,22.33
2023-02-11T16:09:21.979Z,23.93
2023-02-11T16:11:48.490Z,26.70
2023-02-11T16:14:27.329Z,24.53
2023-02-11T16:16:55.564Z,23.30
2023-02-11T16:19:25.575Z,26.77
2023-02-11T16:21:55.626Z,26.37
2023-02-11T16:24:28.052Z,25.17
2023-02-11T16:27:16.972Z,25.67
2023-02-11T16:29:47.380Z,24.53
2023-02-11T16:32:18.987Z,25.57
2023-02-11T16:34:45.625Z,27.27
2023-02-11T16:37:12.392Z,24.80
2023-02-11T16:39:39.052Z,31.30
2023-02-11T16:42:07.690Z,29.37
2023-02-11T16:44:34.910Z,33.00
2023-02-11T16:47:03.365Z,27.83
2023-02-11T16:49:34.442Z,31.03
2023-02-11T16:52:02.609Z,31.67
2023-02-11T16:54:30.254Z,27.93
2023-02-11T16:56:57.627Z,30.03
2023-02-11T16:59:24.253Z,28.53
2023-02-11T17:01:53.638Z,28.53
2023-02-11T17:04:25.430Z,30.03
2023-02-11T17:06:52.212Z,29.90
2023-02-11T17:09:24.549Z,28.47
2023-02-11T17:11:51.600Z,30.53
2023-02-11T17:14:19.046Z,33.93
2023-02-11T17:16:47.614Z,30.13
2023-02-11T17:19:17.000Z,31.13
2023-02-11T17:21:45.123Z,33.10
2023-02-11T17:24:12.487Z,35.17
2023-02-11T17:26:39.260Z,32.03
2023-02-11T17:29:10.795Z,47.93
2023-02-11T17:31:38.559Z,38.47
2023-02-11T17:34:05.402Z,34.30
2023-02-11T17:36:33.278Z,31.57
2023-02-11T17:39:01.223Z,33.40
2023-02-11T17:41:28.525Z,30.73
2023-02-11T17:43:58.133Z,33.17
2023-02-11T17:46:24.775Z,38.47
2023-02-11T17:48:53.237Z,35.27
2023-02-11T17:51:34.254Z,27.33
2023-02-11T17:54:03.838Z,27.67
2023-02-11T17:56:33.570Z,28.87
2023-02-11T17:59:02.297Z,29.20
2023-02-11T18:01:30.127Z,27.47
2023-02-11T18:03:56.740Z,28.50
2023-02-11T18:06:23.422Z,32.07
2023-02-11T18:08:50.087Z,37.53
2023-02-11T18:11:17.046Z,36.57
2023-02-11T18:13:45.326Z,29.23
2023-02-11T18:16:15.819Z,28.83
2023-02-11T18:18:45.988Z,29.90
2023-02-11T18:21:14.470Z,30.73
2023-02-11T18:23:41.085Z,29.47
2023-02-11T18:26:08.790Z,31.57
2023-02-11T18:28:36.434Z,29.57
2023-02-11T18:31:04.095Z,30.53
2023-02-11T18:33:30.980Z,29.57
2023-02-11T18:35:57.539Z,31.53
2023-02-11T18:38:24.762Z,28.30
2023-02-11T18:40:52.424Z,30.20
2023-02-11T18:43:20.466Z,31.80
2023-02-11T18:45:49.241Z,32.37
2023-02-11T18:48:17.942Z,36.30
2023-02-11T18:50:46.017Z,47.73
2023-02-11T18:53:15.659Z,53.47
2023-02-11T18:55:44.709Z,44.50
2023-02-11T18:58:11.972Z,42.30
2023-02-11T19:00:41.324Z,45.63
2023-02-11T19:03:07.976Z,43.50
2023-02-11T19:05:48.564Z,38.40
2023-02-11T19:08:17.014Z,32.97
2023-02-11T19:10:46.564Z,34.60
2023-02-11T19:13:14.035Z,28.07
2023-02-11T19:15:42.140Z,26.97
2023-02-11T19:18:08.832Z,29.43
2023-02-11T19:20:35.433Z,27.23
2023-02-11T19:23:02.055Z,31.27
2023-02-11T19:25:28.634Z,26.60
2023-02-11T19:27:55.221Z,29.90
2023-02-11T19:30:22.014Z,27.67
2023-02-11T19:32:52.493Z,29.20
2023-02-11T19:35:22.188Z,31.67
2023-02-11T19:37:48.911Z,46.23
2023-02-11T19:40:16.555Z,38.67
2023-02-11T19:42:43.252Z,41.47
2023-02-11T19:45:10.141Z,40.20
2023-02-11T19:47:36.845Z,38.37
2023-02-11T19:50:05.438Z,32.43
2023-02-11T19:52:32.203Z,36.57
2023-02-11T19:54:59.426Z,34.23
2023-02-11T19:57:26.126Z,34.83
2023-02-11T19:59:54.847Z,32.93
2023-02-11T20:02:21.589Z,31.50
2023-02-11T20:04:48.363Z,30.03
2023-02-11T20:07:15.104Z,32.50
2023-02-11T20:09:42.621Z,30.07
2023-02-11T20:12:10.060Z,31.83
2023-02-11T20:14:36.749Z,32.80
2023-02-11T20:17:03.327Z,31.73
2023-02-11T20:19:30.732Z,32.83
2023-02-11T20:21:57.551Z,28.03
2023-02-11T20:24:25.018Z,31.67
2023-02-11T20:26:55.387Z,30.80
2023-02-11T20:29:23.307Z,31.30
2023-02-11T20:31:50.258Z,31.23
2023-02-11T20:34:17.875Z,33.97
2023-02-11T20:36:51.544Z,33.93
2023-02-11T20:39:21.750Z,34.70
2023-02-11T20:41:49.016Z,32.23
2023-02-11T20:44:15.773Z,34.33
2023-02-11T20:46:46.503Z,32.47
2023-02-11T20:49:15.669Z,33.37
2023-02-11T20:51:43.363Z,33.43
2023-02-11T20:54:16.222Z,30.80
2023-02-11T20:56:44.979Z,34.10
2023-02-11T20:59:14.338Z,37.93
2023-02-11T21:01:45.545Z,42.40
2023-02-11T21:04:20.536Z,41.43
2023-02-11T21:06:52.248Z,39.03
2023-02-11T21:09:21.978Z,41.83
2023-02-11T21:11:51.745Z,42.20
2023-02-11T21:14:19.520Z,35.93
2023-02-11T21:16:47.343Z,35.63
2023-02-11T21:19:14.584Z,39.23
2023-02-11T21:21:42.044Z,37.80
2023-02-11T21:24:10.507Z,38.13
2023-02-11T21:26:38.033Z,40.07
2023-02-11T21:29:07.747Z,34.27
2023-02-11T21:31:35.702Z,34.87
2023-02-11T21:34:02.815Z,31.20
2023-02-11T21:36:30.802Z,28.67
2023-02-11T21:38:58.417Z,29.27
2023-02-11T21:41:25.215Z,29.40
2023-02-11T21:43:52.430Z,30.90
2023-02-11T21:46:20.541Z,32.53
2023-02-11T21:48:47.611Z,26.90
2023-02-11T21:51:17.001Z,28.40
2023-02-11T21:53:43.669Z,28.47
2023-02-11T21:56:13.671Z,31.17
2023-02-11T21:58:40.665Z,31.00
2023-02-11T22:01:11.602Z,37.17
2023-02-11T22:03:38.521Z,29.93
2023-02-11T22:06:17.999Z,30.53
2023-02-11T22:08:44.952Z,39.23
2023-02-11T22:11:13.672Z,30.43
2023-02-11T22:13:41.424Z,29.13
2023-02-11T22:16:11.473Z,30.40
2023-02-11T22:18:39.154Z,29.93
2023-02-11T22:21:08.665Z,29.07
2023-02-11T22:23:36.697Z,32.00
2023-02-11T22:26:09.728Z,32.27
2023-02-11T22:28:39.106Z,33.30
2023-02-11T22:31:06.180Z,35.10
2023-02-11T22:33:33.728Z,32.30
2023-02-11T22:36:12.435Z,35.03
2023-02-11T22:38:39.314Z,37.67
2023-02-11T22:41:09.644Z,38.07
2023-02-11T22:43:37.187Z,31.77
2023-02-11T22:46:06.076Z,35.17
2023-02-11T22:48:34.595Z,34.43
2023-02-11T22:51:25.002Z,35.33
2023-02-11T22:53:53.239Z,35.70
2023-02-11T22:56:21.300Z,33.67
2023-02-11T22:58:48.738Z,31.70
2023-02-11T23:01:16.422Z,30.87
2023-02-11T23:03:43.610Z,30.47
2023-02-11T23:06:11.478Z,28.77
2023-02-11T23:08:40.303Z,26.60
2023-02-11T23:11:10.952Z,30.67
2023-02-11T23:13:40.264Z,31.00
2023-02-11T23:16:10.400Z,32.90
2023-02-11T23:18:39.032Z,36.33
2023-02-11T23:21:13.090Z,31.73
2023-02-11T23:23:40.225Z,29.53
2023-02-11T23:26:11.119Z,29.87
2023-02-11T23:28:38.933Z,24.73
2023-02-11T23:31:26.258Z,25.57
2023-02-11T23:33:53.436Z,23.37
2023-02-11T23:36:21.983Z,23.37
2023-02-11T23:38:49.430Z,23.27
2023-02-11T23:41:17.121Z,27.17
2023-02-11T23:43:44.216Z,25.90
2023-02-11T23:46:11.055Z,27.83
2023-02-11T23:48:38.673Z,25.90
2023-02-11T23:51:06.493Z,24.80
2023-02-11T23:53:33.127Z,25.63
2023-02-11T23:55:59.971Z,27.97
2023-02-11T23:58:26.605Z,28.63
